createdAt,value
2022-11-13T00:01:03.782Z,92.3
2022-11-13T00:06:08.443Z,92
2022-11-13T00:11:12.836Z,91.6
2022-11-13T00:16:16.404Z,91.4
2022-11-13T00:21:21.049Z,91.1
2022-11-13T00:26:25.476Z,91.3
2022-11-13T00:31:29.979Z,91.9
2022-11-13T00:36:33.639Z,92.5
2022-11-13T00:41:38.084Z,93.2
2022-11-13T00:46:42.629Z,93.5
2022-11-13T00:51:46.272Z,93.9
2022-11-13T00:56:49.752Z,94
2022-11-13T01:01:54.315Z,93.9
2022-11-13T01:06:58.916Z,93.3
2022-11-13T01:12:03.336Z,93.4
2022-11-13T01:17:06.895Z,93.6
2022-11-13T01:22:11.537Z,93.1
2022-11-13T01:27:15.914Z,92.3
2022-11-13T01:32:19.462Z,91.9
2022-11-13T01:37:24.142Z,91.6
2022-11-13T01:42:28.574Z,91.8
2022-11-13T01:47:32.130Z,91.4
2022-11-13T01:52:36.765Z,92.2
2022-11-13T01:57:41.141Z,92.7
2022-11-13T02:02:44.748Z,92.2
2022-11-13T02:07:49.395Z,91.7
2022-11-13T02:12:53.803Z,90.6
2022-11-13T02:17:58.300Z,90
2022-11-13T02:23:02.021Z,90.6
2022-11-13T02:28:06.391Z,91
2022-11-13T02:33:10.963Z,91.2
2022-11-13T02:38:14.617Z,91.7
2022-11-13T02:43:19.008Z,91.6
2022-11-13T02:48:23.562Z,91.8
2022-11-13T02:53:28.340Z,91.6
2022-11-13T02:58:32.767Z,90.8
2022-11-13T03:03:58.131Z,91.1
2022-11-13T03:08:41.002Z,91.3
2022-11-13T03:13:45.389Z,91.1
2022-11-13T03:18:49.942Z,90.5
2022-11-13T03:23:54.587Z,90.5
2022-11-13T03:28:58.011Z,90
2022-11-13T03:34:02.535Z,90.7
2022-11-13T03:39:07.171Z,91.9
2022-11-13T03:44:10.618Z,93.4
2022-11-13T03:49:15.158Z,94.4
2022-11-13T03:54:19.710Z,94.8
2022-11-13T03:59:23.233Z,94.5
2022-11-13T04:04:27.783Z,93.8
2022-11-13T04:09:32.445Z,93.4
2022-11-13T04:14:35.825Z,93
2022-11-13T04:19:40.368Z,92.5
2022-11-13T04:24:45.056Z,91.4
2022-11-13T04:29:49.459Z,90.7
2022-11-13T04:34:52.999Z,90.4
2022-11-13T04:39:57.658Z,90.6
2022-11-13T04:45:02.090Z,90.6
2022-11-13T04:50:05.602Z,90.5
2022-11-13T04:55:10.260Z,89.6
2022-11-13T05:00:14.701Z,89.8
2022-11-13T05:05:18.216Z,90.7
2022-11-13T05:10:22.907Z,90.2
2022-11-13T05:15:26.344Z,89
2022-11-13T05:20:30.859Z,89.6
2022-11-13T05:25:35.542Z,89.8
2022-11-13T05:30:38.955Z,90.9
2022-11-13T05:35:43.498Z,91.6
2022-11-13T05:40:48.117Z,92
2022-11-13T05:45:51.573Z,91.4
2022-11-13T05:50:56.103Z,91.7
2022-11-13T05:56:00.730Z,92.3
2022-11-13T06:01:04.193Z,90.5
2022-11-13T06:06:08.719Z,86.8
2022-11-13T06:11:13.392Z,85.7
2022-11-13T06:16:17.818Z,87.2
2022-11-13T06:21:21.321Z,85.3
2022-11-13T06:26:25.993Z,83
2022-11-13T06:31:30.400Z,81.5
2022-11-13T06:36:33.963Z,79.7
2022-11-13T06:41:38.597Z,79.4
2022-11-13T06:46:43.049Z,80.2
2022-11-13T06:51:46.555Z,78.5
2022-11-13T06:56:51.214Z,74.7
2022-11-13T07:01:55.646Z,71.1
2022-11-13T07:06:59.329Z,69.1
2022-11-13T07:12:03.752Z,66.4
2022-11-13T07:17:10.109Z,65
2022-11-13T07:22:12.819Z,65.7
2022-11-13T07:27:16.462Z,67.1
2022-11-13T07:32:20.894Z,67.9
2022-11-13T07:37:25.434Z,69.2
2022-11-13T07:42:29.070Z,69.4
2022-11-13T07:47:33.477Z,70.6
2022-11-13T07:52:38.016Z,69.3
2022-11-13T07:57:41.677Z,67.3
2022-11-13T08:02:46.154Z,66.3
2022-11-13T08:07:51.480Z,65.7
2022-11-13T08:12:54.316Z,66.3
2022-11-13T08:17:58.748Z,66.5
2022-11-13T08:23:03.257Z,68.2
2022-11-13T08:28:12.795Z,65.8
2022-11-13T08:33:11.357Z,65.8
2022-11-13T08:38:15.894Z,63.7
2022-11-13T08:43:20.508Z,62.8
2022-11-13T08:48:23.959Z,62.4
2022-11-13T08:53:28.517Z,62.2
2022-11-13T08:58:33.184Z,62.5
2022-11-13T09:03:36.666Z,62.7
2022-11-13T09:08:41.117Z,65.2
2022-11-13T09:13:50.638Z,65
2022-11-13T09:18:49.217Z,64.6
2022-11-13T09:23:53.749Z,65.2
2022-11-13T09:28:57.432Z,63.9
2022-11-13T09:34:01.846Z,63.1
2022-11-13T09:39:06.366Z,63
2022-11-13T09:44:10.053Z,63
2022-11-13T09:49:14.464Z,62.7
2022-11-13T09:54:18.992Z,60.3
2022-11-13T09:59:22.659Z,58.6
2022-11-13T10:04:27.097Z,58.3
2022-11-13T10:09:31.601Z,56.5
2022-11-13T10:14:36.262Z,56.3
2022-11-13T10:19:39.674Z,56.5
2022-11-13T10:24:44.239Z,55.9
2022-11-13T10:29:49.385Z,56.4
2022-11-13T10:34:52.346Z,56.2
2022-11-13T10:39:56.888Z,55.2
2022-11-13T10:45:01.509Z,54.8
2022-11-13T10:50:04.975Z,54.4
2022-11-13T10:55:09.492Z,53.3
2022-11-13T11:00:14.141Z,53
2022-11-13T11:05:17.555Z,52.7
2022-11-13T11:10:22.137Z,51.8
2022-11-13T11:15:26.783Z,52
2022-11-13T11:20:31.179Z,52.2
2022-11-13T11:25:34.756Z,53.2
2022-11-13T11:30:39.424Z,51.5
2022-11-13T11:35:43.844Z,53.4
2022-11-13T11:40:47.392Z,52.2
2022-11-13T11:45:52.054Z,51.2
2022-11-13T11:50:56.447Z,51.9
2022-11-13T11:56:00.005Z,51.5
2022-11-13T12:01:04.566Z,51.5
2022-11-13T12:06:09.095Z,51.5
2022-11-13T12:11:12.627Z,51.4
2022-11-13T12:16:22.338Z,49.5
2022-11-13T12:21:21.734Z,50.1
2022-11-13T12:26:26.285Z,50.7
2022-11-13T12:31:29.939Z,50
2022-11-13T12:36:34.387Z,48.7
2022-11-13T12:41:38.920Z,50.3
2022-11-13T12:46:42.545Z,49.5
2022-11-13T12:51:46.979Z,47.4
2022-11-13T12:56:51.515Z,47
2022-11-13T13:01:55.234Z,47.3
2022-11-13T13:06:59.649Z,46.6
2022-11-13T13:12:04.156Z,47
2022-11-13T13:17:07.802Z,47.7
2022-11-13T13:22:12.246Z,47.4
2022-11-13T13:27:16.785Z,47.6
2022-11-13T13:32:21.517Z,48.6
2022-11-13T13:37:24.865Z,47.5
2022-11-13T13:42:28.440Z,48
2022-11-13T13:47:33.087Z,46.6
2022-11-13T13:52:37.505Z,43.5
2022-11-13T13:57:41.048Z,42.4
2022-11-13T14:02:45.700Z,42.1
2022-11-13T14:07:50.133Z,42.7
2022-11-13T14:12:54.720Z,43.8
2022-11-13T14:17:58.320Z,44.1
2022-11-13T14:23:02.769Z,44.1
2022-11-13T14:28:07.281Z,46.9
2022-11-13T14:33:10.962Z,48
2022-11-13T14:38:15.358Z,48.6
2022-11-13T14:43:19.894Z,46.8
2022-11-13T14:48:23.653Z,46.5
2022-11-13T14:53:28.273Z,46.9
2022-11-13T14:58:32.551Z,47.8
2022-11-13T15:03:36.210Z,53.1
2022-11-13T15:08:40.626Z,57.1
2022-11-13T15:13:45.203Z,56.2
2022-11-13T15:18:49.790Z,57.5
2022-11-13T15:23:53.212Z,59.4
2022-11-13T15:28:57.778Z,60
2022-11-13T15:34:02.415Z,59.9
2022-11-13T15:39:06.602Z,60.6
2022-11-13T15:44:10.381Z,60.2
2022-11-13T15:49:15.014Z,59.8
2022-11-13T15:54:18.482Z,61
2022-11-13T15:59:23.002Z,63.5
2022-11-13T16:04:44.014Z,65.6
2022-11-13T16:09:31.081Z,66.4
2022-11-13T16:14:35.613Z,69
2022-11-13T16:19:40.194Z,70.5
2022-11-13T16:24:44.704Z,70.4
2022-11-13T16:29:48.219Z,69.4
2022-11-13T16:34:52.876Z,69.8
2022-11-13T16:39:57.328Z,71.1
2022-11-13T16:45:00.852Z,71
2022-11-13T16:50:05.559Z,70.5
2022-11-13T16:55:09.906Z,70.3
2022-11-13T17:00:13.475Z,70.6
2022-11-13T17:05:18.098Z,70.3
2022-11-13T17:10:31.736Z,69.7
2022-11-13T17:15:26.105Z,69.5
2022-11-13T17:20:30.731Z,69.8
2022-11-13T17:25:35.133Z,69.9
2022-11-13T17:30:39.706Z,70
2022-11-13T17:35:43.239Z,71.2
2022-11-13T17:40:47.803Z,71.3
2022-11-13T17:45:52.281Z,71.6
2022-11-13T17:50:55.979Z,71.4
2022-11-13T17:55:59.444Z,71.7
2022-11-13T18:01:03.956Z,71.3
2022-11-13T18:06:08.607Z,69.8
2022-11-13T18:11:12.994Z,69.2
2022-11-13T18:16:16.566Z,69.9
2022-11-13T18:21:23.410Z,72.2
2022-11-13T18:26:25.614Z,73.7
2022-11-13T18:31:29.178Z,74
2022-11-13T18:36:33.832Z,73.5
2022-11-13T18:41:38.244Z,73.7
2022-11-13T18:46:41.833Z,73.7
2022-11-13T18:51:46.466Z,74
2022-11-13T18:56:50.885Z,73.6
2022-11-13T19:01:54.536Z,73.3
2022-11-13T19:06:59.164Z,73.6
2022-11-13T19:12:03.494Z,74.1
2022-11-13T19:17:07.990Z,74
2022-11-13T19:22:11.682Z,72
2022-11-13T19:27:16.072Z,70.9
2022-11-13T19:32:20.609Z,69.7
2022-11-13T19:37:24.288Z,71.1
2022-11-13T19:42:28.740Z,73.3
2022-11-13T19:47:33.256Z,70.4
2022-11-13T19:52:36.901Z,69.9
2022-11-13T19:57:45.105Z,70.4
2022-11-13T20:02:46.024Z,71.7
2022-11-13T20:07:49.560Z,73.1
2022-11-13T20:12:53.953Z,75.8
2022-11-13T20:17:58.494Z,77.9
2022-11-13T20:23:03.121Z,79.5
2022-11-13T20:28:06.591Z,80.5
2022-11-13T20:33:11.132Z,81.1
2022-11-13T20:38:15.738Z,72.3
2022-11-13T20:43:19.224Z,67.8
2022-11-13T20:48:23.716Z,65
2022-11-13T20:53:28.368Z,62.4
2022-11-13T20:58:32.152Z,61.5
2022-11-13T21:03:40.209Z,64.8
2022-11-13T21:08:40.990Z,67.2
2022-11-13T21:13:44.419Z,68.1
2022-11-13T21:18:48.974Z,68.4
2022-11-13T21:23:53.629Z,71.7
2022-11-13T21:28:58.037Z,74.8
2022-11-13T21:34:01.554Z,74.5
2022-11-13T21:39:06.324Z,69.1
2022-11-13T21:44:10.649Z,65.9
2022-11-13T21:49:14.228Z,65.4
2022-11-13T21:54:18.840Z,65.4
2022-11-13T21:59:23.237Z,65.9
2022-11-13T22:04:26.837Z,66.4
2022-11-13T22:09:31.455Z,67.1
2022-11-13T22:14:34.909Z,66.9
2022-11-13T22:19:39.504Z,66.7
2022-11-13T22:24:44.151Z,65.9
2022-11-13T22:29:47.544Z,66.1
2022-11-13T22:34:52.084Z,66.3
2022-11-13T22:39:56.741Z,66.2
2022-11-13T22:45:00.181Z,67.1
2022-11-13T22:50:04.753Z,67
2022-11-13T22:55:09.377Z,67.3
2022-11-13T23:00:12.762Z,66.9
2022-11-13T23:05:17.321Z,66.8
2022-11-13T23:10:21.933Z,66.1
2022-11-13T23:15:26.398Z,66.3
2022-11-13T23:20:29.906Z,66.5
2022-11-13T23:25:34.561Z,65.9
2022-11-13T23:30:38.996Z,66
2022-11-13T23:35:42.545Z,66.2
2022-11-13T23:40:47.181Z,67.2
2022-11-13T23:45:51.622Z,68.5
2022-11-13T23:50:55.196Z,69.7
2022-11-13T23:55:59.847Z,71
